createdAt,value
2023-03-10T00:00:14.502Z,1007.05
2023-03-10T00:02:41.348Z,1007.08
2023-03-10T00:05:11.330Z,1007.08
2023-03-10T00:07:38.057Z,1007.16
2023-03-10T00:10:05.499Z,1007.09
2023-03-10T00:12:32.217Z,1007.05
2023-03-10T00:14:59.039Z,1006.97
2023-03-10T00:17:25.950Z,1007.03
2023-03-10T00:19:52.713Z,1007.05
2023-03-10T00:22:20.852Z,1007.01
2023-03-10T00:24:47.635Z,1007.11
2023-03-10T00:27:14.549Z,1007.00
2023-03-10T00:29:41.342Z,1006.96
2023-03-10T00:32:08.360Z,1007.02
2023-03-10T00:34:35.146Z,1006.99
2023-03-10T00:37:02.019Z,1006.98
2023-03-10T00:39:30.121Z,1006.99
2023-03-10T00:41:56.854Z,1006.85
2023-03-10T00:44:23.551Z,1006.83
2023-03-10T00:46:50.336Z,1006.86
2023-03-10T00:49:17.200Z,1006.83
2023-03-10T00:51:44.118Z,1006.83
2023-03-10T00:54:10.946Z,1006.66
2023-03-10T00:56:39.232Z,1006.62
2023-03-10T00:59:06.344Z,1006.63
2023-03-10T01:01:35.131Z,1006.65
2023-03-10T01:04:04.330Z,1006.59
2023-03-10T01:06:31.690Z,1006.56
2023-03-10T01:08:58.564Z,1006.47
2023-03-10T01:11:27.285Z,1006.45
2023-03-10T01:13:57.388Z,1006.36
2023-03-10T01:16:24.280Z,1006.20
2023-03-10T01:18:51.069Z,1006.14
2023-03-10T01:21:20.158Z,1005.96
2023-03-10T01:23:47.406Z,1005.97
2023-03-10T01:26:14.903Z,1006.05
2023-03-10T01:28:42.231Z,1005.98
2023-03-10T01:31:10.613Z,1005.89
2023-03-10T01:33:38.906Z,1005.82
2023-03-10T01:36:08.154Z,1005.79
2023-03-10T01:38:35.193Z,1005.65
2023-03-10T01:41:01.969Z,1005.63
2023-03-10T01:43:31.362Z,1005.54
2023-03-10T01:46:43.268Z,1005.49
2023-03-10T01:49:18.954Z,1005.44
2023-03-10T01:51:48.627Z,1005.44
2023-03-10T01:54:20.828Z,1005.41
2023-03-10T01:56:49.592Z,1005.49
2023-03-10T01:59:16.874Z,1005.37
2023-03-10T02:01:44.098Z,1005.46
2023-03-10T02:04:17.778Z,1005.40
2023-03-10T02:06:46.237Z,1005.32
2023-03-10T02:09:14.586Z,1005.32
2023-03-10T02:11:41.789Z,1005.36
2023-03-10T02:14:08.590Z,1005.29
2023-03-10T02:16:35.603Z,1005.18
2023-03-10T02:19:06.156Z,1005.09
2023-03-10T02:21:42.498Z,1005.00
2023-03-10T02:24:18.221Z,1004.99
2023-03-10T02:26:52.986Z,1004.90
2023-03-10T02:29:26.118Z,1004.90
2023-03-10T02:31:53.978Z,1004.83
2023-03-10T02:34:21.225Z,1004.70
2023-03-10T02:36:48.037Z,1004.66
2023-03-10T02:39:14.778Z,1004.74
2023-03-10T02:41:44.994Z,1004.65
2023-03-10T02:44:14.578Z,1004.56
2023-03-10T02:46:43.233Z,1004.46
2023-03-10T02:49:10.593Z,1004.41
2023-03-10T02:51:40.680Z,1004.41
2023-03-10T02:54:08.741Z,1004.27
2023-03-10T02:56:36.877Z,1004.23
2023-03-10T02:59:04.584Z,1004.24
2023-03-10T03:01:31.811Z,1004.09
2023-03-10T03:04:00.272Z,1004.14
2023-03-10T03:06:27.829Z,1004.13
2023-03-10T03:08:54.885Z,1004.11
2023-03-10T03:11:22.589Z,1004.14
2023-03-10T03:13:49.381Z,1004.09
2023-03-10T03:16:16.201Z,1004.03
2023-03-10T03:18:43.050Z,1004.04
2023-03-10T03:21:13.597Z,1003.86
2023-03-10T03:23:40.363Z,1003.91
2023-03-10T03:26:15.586Z,1003.87
2023-03-10T03:28:42.696Z,1003.91
2023-03-10T03:31:14.556Z,1003.83
2023-03-10T03:33:41.393Z,1003.97
2023-03-10T03:36:08.600Z,1003.96
2023-03-10T03:38:37.050Z,1003.94
2023-03-10T03:41:04.094Z,1003.82
2023-03-10T03:43:30.950Z,1003.92
2023-03-10T03:45:57.756Z,1003.83
2023-03-10T03:48:24.578Z,1003.81
2023-03-10T03:50:51.349Z,1003.77
2023-03-10T03:53:18.059Z,1003.64
2023-03-10T03:55:46.158Z,1003.70
2023-03-10T03:58:12.944Z,1003.70
2023-03-10T04:00:39.915Z,1003.89
2023-03-10T04:03:06.749Z,1003.82
2023-03-10T04:05:33.687Z,1003.92
2023-03-10T04:08:00.432Z,1003.74
2023-03-10T04:10:27.194Z,1003.79
2023-03-10T04:12:55.430Z,1003.84
2023-03-10T04:15:22.392Z,1004.04
2023-03-10T04:17:49.311Z,1003.93
2023-03-10T04:20:16.490Z,1003.89
2023-03-10T04:22:43.297Z,1003.89
2023-03-10T04:25:11.258Z,1003.86
2023-03-10T04:27:38.000Z,1003.63
2023-03-10T04:30:07.594Z,1003.53
2023-03-10T04:32:34.476Z,1003.37
2023-03-10T04:35:01.492Z,1003.36
2023-03-10T04:37:28.266Z,1003.50
2023-03-10T04:39:54.995Z,1003.44
2023-03-10T04:42:21.736Z,1003.34
2023-03-10T04:44:48.584Z,1003.50
2023-03-10T04:47:16.810Z,1003.41
2023-03-10T04:49:43.545Z,1003.55
2023-03-10T04:52:10.298Z,1003.47
2023-03-10T04:54:37.037Z,1003.60
2023-03-10T04:57:03.971Z,1003.38
2023-03-10T04:59:30.714Z,1003.26
2023-03-10T05:01:57.560Z,1003.15
2023-03-10T05:04:25.743Z,1003.04
2023-03-10T05:06:52.851Z,1002.94
2023-03-10T05:09:19.820Z,1002.92
2023-03-10T05:11:46.828Z,1003.16
2023-03-10T05:14:14.184Z,1003.19
2023-03-10T05:16:41.023Z,1003.23
2023-03-10T05:19:07.769Z,1003.26
2023-03-10T05:21:36.743Z,1003.25
2023-03-10T05:24:03.998Z,1003.29
2023-03-10T05:26:33.493Z,1003.17
2023-03-10T05:29:01.632Z,1003.21
2023-03-10T05:31:28.471Z,1003.26
2023-03-10T05:33:55.484Z,1003.17
2023-03-10T05:36:22.272Z,1003.10
2023-03-10T05:38:50.615Z,1003.21
2023-03-10T05:41:17.636Z,1003.09
2023-03-10T05:43:44.404Z,1003.12
2023-03-10T05:46:12.015Z,1002.96
2023-03-10T05:48:39.194Z,1002.89
2023-03-10T05:51:08.620Z,1002.91
2023-03-10T05:53:37.105Z,1003.00
2023-03-10T05:56:10.638Z,1002.99
2023-03-10T05:58:37.732Z,1002.86
2023-03-10T06:01:05.712Z,1002.88
2023-03-10T06:03:33.084Z,1002.90
2023-03-10T06:06:00.475Z,1002.80
2023-03-10T06:08:27.635Z,1002.68
2023-03-10T06:10:54.735Z,1002.65
2023-03-10T06:13:24.309Z,1002.58
2023-03-10T06:15:52.405Z,1002.56
2023-03-10T06:18:19.517Z,1002.42
2023-03-10T06:20:46.708Z,1002.31
2023-03-10T06:23:13.573Z,1002.29
2023-03-10T06:25:40.535Z,1002.35
2023-03-10T06:28:09.627Z,1002.38
2023-03-10T06:30:38.357Z,1002.37
2023-03-10T06:33:05.425Z,1002.36
2023-03-10T06:35:32.603Z,1002.25
2023-03-10T06:37:59.477Z,1002.27
2023-03-10T06:40:26.444Z,1002.21
2023-03-10T06:42:53.236Z,1002.16
2023-03-10T06:45:20.190Z,1002.10
2023-03-10T06:47:48.340Z,1002.06
2023-03-10T06:50:15.378Z,1001.99
2023-03-10T06:52:42.278Z,1001.85
2023-03-10T06:55:09.921Z,1001.87
2023-03-10T06:57:37.306Z,1001.87
2023-03-10T07:00:05.605Z,1001.87
2023-03-10T07:02:32.763Z,1001.80
2023-03-10T07:05:01.162Z,1001.78
2023-03-10T07:07:28.039Z,1001.69
2023-03-10T07:09:54.984Z,1001.68
2023-03-10T07:12:23.406Z,1001.65
2023-03-10T07:14:50.506Z,1001.59
2023-03-10T07:17:18.065Z,1001.39
2023-03-10T07:19:45.367Z,1001.24
2023-03-10T07:22:13.820Z,1001.21
2023-03-10T07:24:40.998Z,1001.20
2023-03-10T07:27:08.334Z,1001.15
2023-03-10T07:29:35.904Z,1001.03
2023-03-10T07:32:03.408Z,1000.91
2023-03-10T07:34:30.311Z,1000.78
2023-03-10T07:36:57.617Z,1000.66
2023-03-10T07:39:26.270Z,1000.50
2023-03-10T07:41:53.602Z,1000.44
2023-03-10T07:44:21.112Z,1000.19
2023-03-10T07:46:48.044Z,999.97
2023-03-10T07:49:16.369Z,999.77
2023-03-10T07:51:43.613Z,999.58
2023-03-10T07:54:12.342Z,999.29
2023-03-10T07:56:40.750Z,998.95
2023-03-10T07:59:08.095Z,998.76
2023-03-10T08:01:35.475Z,998.61
2023-03-10T08:04:02.655Z,998.51
2023-03-10T08:06:30.099Z,998.49
2023-03-10T08:08:57.057Z,998.49
2023-03-10T08:11:24.366Z,998.38
2023-03-10T08:14:00.661Z,998.33
2023-03-10T08:16:29.597Z,998.19
2023-03-10T08:18:57.103Z,998.36
2023-03-10T08:21:24.178Z,998.30
2023-03-10T08:23:51.114Z,998.24
2023-03-10T08:26:19.026Z,998.14
2023-03-10T08:28:46.410Z,998.19
2023-03-10T08:31:16.504Z,998.21
2023-03-10T08:33:45.886Z,998.22
2023-03-10T08:36:15.561Z,998.34
2023-03-10T08:38:44.078Z,998.44
2023-03-10T08:41:15.290Z,998.69
2023-03-10T08:43:42.934Z,998.77
2023-03-10T08:46:15.363Z,998.72
2023-03-10T08:48:44.043Z,998.88
2023-03-10T08:51:16.439Z,998.79
2023-03-10T08:53:45.523Z,998.81
2023-03-10T08:56:12.628Z,998.83
2023-03-10T08:58:39.529Z,998.67
2023-03-10T09:01:06.826Z,998.66
2023-03-10T09:03:36.988Z,998.67
2023-03-10T09:06:04.208Z,998.59
2023-03-10T09:08:31.045Z,998.67
2023-03-10T09:10:57.822Z,998.62
2023-03-10T09:13:24.698Z,998.57
2023-03-10T09:15:51.481Z,998.42
2023-03-10T09:18:19.990Z,998.43
2023-03-10T09:20:48.533Z,998.40
2023-03-10T09:23:16.495Z,998.29
2023-03-10T09:25:43.621Z,998.20
2023-03-10T09:28:11.281Z,998.24
2023-03-10T09:30:41.228Z,998.22
2023-03-10T09:33:15.435Z,998.21
2023-03-10T09:35:52.575Z,998.12
2023-03-10T09:38:26.301Z,998.12
2023-03-10T09:41:02.382Z,998.00
2023-03-10T09:43:34.372Z,997.88
2023-03-10T09:46:08.510Z,997.94
2023-03-10T09:48:46.462Z,997.96
2023-03-10T09:51:18.896Z,997.97
2023-03-10T09:54:09.691Z,997.96
2023-03-10T09:56:36.986Z,997.86
2023-03-10T09:59:07.482Z,997.91
2023-03-10T10:01:34.778Z,997.91
2023-03-10T10:04:07.380Z,998.08
2023-03-10T10:06:38.037Z,998.03
2023-03-10T10:09:12.878Z,998.14
2023-03-10T10:11:39.961Z,998.22
2023-03-10T10:14:28.390Z,998.04
2023-03-10T10:17:06.146Z,998.10
2023-03-10T10:19:36.669Z,998.15
2023-03-10T10:22:10.264Z,998.04
2023-03-10T10:24:38.744Z,997.98
2023-03-10T10:27:05.600Z,997.73
2023-03-10T10:29:34.691Z,997.82
2023-03-10T10:32:04.930Z,997.79
2023-03-10T10:34:32.361Z,997.84
2023-03-10T10:36:59.851Z,997.87
2023-03-10T10:39:29.165Z,997.64
2023-03-10T10:42:12.310Z,997.53
2023-03-10T10:44:41.437Z,997.40
2023-03-10T10:47:24.877Z,997.20
2023-03-10T10:49:52.007Z,997.15
2023-03-10T10:52:21.689Z,996.94
2023-03-10T10:54:52.687Z,996.74
2023-03-10T10:57:23.076Z,996.56
2023-03-10T10:59:50.132Z,996.55
2023-03-10T11:02:32.469Z,996.51
2023-03-10T11:05:13.094Z,996.42
2023-03-10T11:07:39.883Z,996.29
2023-03-10T11:10:12.699Z,996.38
2023-03-10T11:12:56.465Z,996.34
2023-03-10T11:15:27.357Z,996.21
2023-03-10T11:17:58.526Z,996.14
2023-03-10T11:20:29.747Z,996.21
2023-03-10T11:23:08.168Z,996.03
2023-03-10T11:25:40.595Z,995.92
2023-03-10T11:28:28.084Z,995.87
2023-03-10T11:31:05.762Z,995.68
2023-03-10T11:33:39.899Z,995.64
2023-03-10T11:36:24.377Z,995.69
2023-03-10T11:38:52.788Z,995.70
2023-03-10T11:41:25.111Z,995.72
2023-03-10T11:43:58.666Z,995.71
2023-03-10T11:46:31.657Z,995.63
2023-03-10T11:49:06.118Z,995.56
2023-03-10T11:51:38.425Z,995.54
2023-03-10T11:54:13.383Z,995.46
2023-03-10T11:56:42.306Z,995.40
2023-03-10T11:59:15.786Z,995.45
2023-03-10T12:01:48.577Z,995.59
2023-03-10T12:04:20.707Z,995.49
2023-03-10T12:06:53.056Z,995.35
2023-03-10T12:09:33.221Z,995.00
2023-03-10T12:12:03.687Z,994.87
2023-03-10T12:14:33.382Z,994.49
2023-03-10T12:17:02.561Z,994.25
2023-03-10T12:19:29.316Z,994.04
2023-03-10T12:22:24.529Z,993.92
2023-03-10T12:24:51.540Z,993.83
2023-03-10T12:27:18.722Z,993.68
2023-03-10T12:29:46.976Z,993.49
2023-03-10T12:32:40.150Z,993.42
2023-03-10T12:35:44.397Z,993.43
2023-03-10T12:38:31.109Z,993.27
2023-03-10T12:40:59.118Z,993.25
2023-03-10T12:44:01.114Z,993.08
2023-03-10T12:46:49.624Z,993.06
2023-03-10T12:49:29.436Z,993.04
2023-03-10T12:52:12.754Z,993.01
2023-03-10T12:54:47.813Z,992.92
2023-03-10T12:57:19.485Z,992.77
2023-03-10T12:59:55.323Z,992.78
2023-03-10T13:02:32.589Z,992.66
2023-03-10T13:05:04.239Z,992.69
2023-03-10T13:07:31.363Z,992.57
2023-03-10T13:09:58.907Z,992.57
2023-03-10T13:12:29.528Z,992.70
2023-03-10T13:14:58.549Z,992.70
2023-03-10T13:17:28.848Z,992.69
2023-03-10T13:20:02.003Z,992.74
2023-03-10T13:22:28.918Z,992.85
2023-03-10T13:25:05.494Z,992.96
2023-03-10T13:27:35.095Z,993.03
2023-03-10T13:30:04.764Z,992.95
2023-03-10T13:32:33.842Z,992.91
2023-03-10T13:35:14.841Z,992.89
2023-03-10T13:37:41.707Z,992.90
2023-03-10T13:40:10.395Z,992.87
2023-03-10T13:42:44.177Z,992.86
2023-03-10T13:45:21.010Z,992.85
2023-03-10T13:47:50.574Z,992.81
2023-03-10T13:50:18.654Z,992.97
2023-03-10T13:52:53.620Z,993.02
2023-03-10T13:55:20.398Z,993.09
2023-03-10T13:57:48.817Z,993.18
2023-03-10T14:00:18.185Z,993.09
2023-03-10T14:02:47.607Z,993.14
2023-03-10T14:05:42.257Z,993.24
2023-03-10T14:08:19.408Z,993.18
2023-03-10T14:10:46.725Z,993.17
2023-03-10T14:13:41.412Z,993.20
2023-03-10T14:16:09.014Z,993.15
2023-03-10T14:18:37.841Z,993.13
2023-03-10T14:21:31.379Z,993.04
2023-03-10T14:24:06.029Z,993.30
2023-03-10T14:26:33.644Z,993.30
2023-03-10T14:29:02.380Z,993.28
2023-03-10T14:31:31.060Z,993.32
2023-03-10T14:33:57.829Z,993.24
2023-03-10T14:36:25.114Z,993.31
2023-03-10T14:38:53.425Z,993.29
2023-03-10T14:41:23.921Z,993.29
2023-03-10T14:43:51.406Z,993.22
2023-03-10T14:46:19.425Z,993.30
2023-03-10T14:48:46.375Z,993.21
2023-03-10T14:51:25.664Z,993.21
2023-03-10T14:54:01.054Z,993.23
2023-03-10T14:56:28.220Z,993.28
2023-03-10T14:58:55.752Z,993.25
2023-03-10T15:01:22.621Z,993.36
2023-03-10T15:03:49.416Z,993.27
2023-03-10T15:06:18.245Z,993.37
2023-03-10T15:08:45.018Z,993.32
2023-03-10T15:11:13.864Z,993.43
2023-03-10T15:13:41.516Z,993.53
2023-03-10T15:16:12.464Z,993.56
2023-03-10T15:18:39.233Z,993.63
2023-03-10T15:21:06.097Z,993.67
2023-03-10T15:23:32.865Z,993.74
2023-03-10T15:25:59.693Z,993.77
2023-03-10T15:28:28.219Z,993.87
2023-03-10T15:30:55.685Z,993.92
2023-03-10T15:33:22.805Z,994.00
2023-03-10T15:35:49.673Z,994.00
2023-03-10T15:38:16.449Z,993.99
2023-03-10T15:40:43.891Z,993.95
2023-03-10T15:43:12.604Z,993.91
2023-03-10T15:45:42.828Z,993.83
2023-03-10T15:48:10.301Z,993.88
2023-03-10T15:50:37.154Z,993.92
2023-03-10T15:53:03.947Z,993.94
2023-03-10T15:55:30.779Z,994.04
2023-03-10T15:57:57.674Z,994.16
2023-03-10T16:00:26.440Z,994.28
2023-03-10T16:02:55.368Z,994.41
2023-03-10T16:05:22.886Z,994.51
2023-03-10T16:07:49.671Z,994.62
2023-03-10T16:10:19.118Z,994.59
2023-03-10T16:12:46.201Z,994.58
2023-03-10T16:15:15.807Z,994.53
2023-03-10T16:17:43.792Z,994.66
2023-03-10T16:20:13.219Z,994.63
2023-03-10T16:22:41.205Z,994.62
2023-03-10T16:25:10.403Z,994.67
2023-03-10T16:27:37.239Z,994.76
2023-03-10T16:30:04.969Z,994.84
2023-03-10T16:32:32.078Z,994.90
2023-03-10T16:34:59.242Z,995.01
2023-03-10T16:37:28.316Z,994.98
2023-03-10T16:39:55.694Z,995.15
2023-03-10T16:42:23.027Z,995.27
2023-03-10T16:44:49.896Z,995.48
2023-03-10T16:47:17.991Z,995.60
2023-03-10T16:49:44.900Z,995.68
2023-03-10T16:52:31.928Z,995.83
2023-03-10T16:55:19.067Z,995.94
2023-03-10T16:58:06.234Z,996.15
2023-03-10T17:00:47.043Z,996.32
2023-03-10T17:03:15.094Z,996.38
2023-03-10T17:05:41.984Z,996.46
2023-03-10T17:08:10.146Z,996.68
2023-03-10T17:10:37.033Z,996.81
2023-03-10T17:13:03.998Z,996.95
2023-03-10T17:15:30.761Z,997.03
2023-03-10T17:17:57.580Z,997.07
2023-03-10T17:20:26.227Z,997.21
2023-03-10T17:22:53.102Z,997.20
2023-03-10T17:25:21.516Z,997.35
2023-03-10T17:27:48.357Z,997.42
2023-03-10T17:30:15.529Z,997.42
2023-03-10T17:32:42.356Z,997.50
2023-03-10T17:35:09.752Z,997.54
2023-03-10T17:37:36.442Z,997.51
2023-03-10T17:40:03.577Z,997.66
2023-03-10T17:42:31.703Z,997.62
2023-03-10T17:44:58.493Z,997.68
2023-03-10T17:47:25.470Z,997.83
2023-03-10T17:49:52.334Z,997.98
2023-03-10T17:52:19.121Z,997.93
2023-03-10T17:54:45.997Z,997.97
2023-03-10T17:57:12.791Z,997.97
2023-03-10T17:59:41.048Z,997.97
2023-03-10T18:02:09.660Z,997.92
2023-03-10T18:04:36.531Z,997.94
2023-03-10T18:07:03.454Z,997.92
2023-03-10T18:09:30.205Z,997.99
2023-03-10T18:11:57.033Z,998.01
2023-03-10T18:14:24.738Z,998.03
2023-03-10T18:16:52.926Z,997.87
2023-03-10T18:19:19.674Z,998.01
2023-03-10T18:21:46.852Z,997.86
2023-03-10T18:24:13.696Z,997.88
2023-03-10T18:26:40.437Z,997.89
2023-03-10T18:29:07.152Z,997.81
2023-03-10T18:31:35.797Z,997.78
2023-03-10T18:34:05.043Z,997.81
2023-03-10T18:36:32.878Z,997.89
2023-03-10T18:38:59.945Z,997.97
2023-03-10T18:41:28.284Z,998.04
2023-03-10T18:43:54.989Z,998.11
2023-03-10T18:46:21.787Z,998.05
2023-03-10T18:48:48.683Z,998.09
2023-03-10T18:51:19.275Z,998.27
2023-03-10T18:53:46.398Z,998.17
2023-03-10T18:56:15.765Z,998.18
2023-03-10T18:58:42.524Z,998.32
2023-03-10T19:01:10.853Z,998.39
2023-03-10T19:03:37.786Z,998.45
2023-03-10T19:06:05.563Z,998.61
2023-03-10T19:08:34.459Z,998.95
2023-03-10T19:11:01.449Z,999.13
2023-03-10T19:13:29.070Z,999.18
2023-03-10T19:15:56.434Z,999.57
2023-03-10T19:18:24.112Z,999.61
2023-03-10T19:20:51.018Z,999.69
2023-03-10T19:23:17.934Z,999.73
2023-03-10T19:25:46.105Z,999.90
2023-03-10T19:28:12.986Z,999.89
2023-03-10T19:30:40.109Z,999.92
2023-03-10T19:33:06.869Z,999.96
2023-03-10T19:35:33.708Z,999.68
2023-03-10T19:38:00.698Z,999.77
2023-03-10T19:40:27.668Z,999.67
2023-03-10T19:42:55.816Z,999.34
2023-03-10T19:45:22.542Z,999.27
2023-03-10T19:47:49.293Z,999.42
2023-03-10T19:50:17.765Z,999.30
2023-03-10T19:52:45.381Z,999.57
2023-03-10T19:55:14.410Z,999.95
2023-03-10T19:57:41.182Z,1000.21
2023-03-10T20:00:13.044Z,1000.06
2023-03-10T20:02:42.236Z,1000.07
2023-03-10T20:05:09.927Z,1000.05
2023-03-10T20:07:36.647Z,1000.11
2023-03-10T20:10:04.016Z,999.97
2023-03-10T20:12:30.858Z,1000.04
2023-03-10T20:14:57.633Z,1000.20
2023-03-10T20:17:26.047Z,1000.02
2023-03-10T20:19:52.810Z,1000.10
2023-03-10T20:22:19.549Z,1000.08
2023-03-10T20:24:46.890Z,999.91
2023-03-10T20:27:13.711Z,999.79
2023-03-10T20:29:41.937Z,999.77
2023-03-10T20:32:08.886Z,1000.04
2023-03-10T20:34:37.176Z,1000.00
2023-03-10T20:37:04.014Z,1000.06
2023-03-10T20:39:30.828Z,999.88
2023-03-10T20:41:57.581Z,999.86
2023-03-10T20:44:24.439Z,1000.10
2023-03-10T20:46:51.169Z,1000.00
2023-03-10T20:49:18.132Z,1000.29
2023-03-10T20:51:46.354Z,1000.15
2023-03-10T20:54:13.064Z,1000.29
2023-03-10T20:56:40.012Z,1000.23
2023-03-10T20:59:06.731Z,1000.40
2023-03-10T21:01:33.583Z,1000.49
2023-03-10T21:04:00.412Z,1000.47
2023-03-10T21:06:28.196Z,1000.36
2023-03-10T21:08:56.416Z,1000.42
2023-03-10T21:11:23.203Z,1000.41
2023-03-10T21:13:50.043Z,1000.51
2023-03-10T21:16:19.101Z,1000.53
2023-03-10T21:18:47.355Z,1000.57
2023-03-10T21:21:14.258Z,1000.44
2023-03-10T21:23:41.722Z,1000.38
2023-03-10T21:26:15.445Z,1000.41
2023-03-10T21:28:42.392Z,1000.47
2023-03-10T21:31:09.377Z,1000.44
2023-03-10T21:33:36.215Z,1000.37
2023-03-10T21:36:03.513Z,1000.41
2023-03-10T21:38:30.318Z,1000.46
2023-03-10T21:40:57.018Z,1000.56
2023-03-10T21:43:25.169Z,1000.65
2023-03-10T21:45:51.918Z,1000.51
2023-03-10T21:48:18.718Z,1000.34
2023-03-10T21:50:45.555Z,1000.40
2023-03-10T21:53:12.949Z,1000.64
2023-03-10T21:55:39.820Z,1000.66
2023-03-10T21:58:06.675Z,1000.62
2023-03-10T22:00:34.929Z,1000.68
2023-03-10T22:03:02.132Z,1000.71
2023-03-10T22:05:28.991Z,1000.63
2023-03-10T22:07:55.816Z,1000.74
2023-03-10T22:10:22.742Z,1000.76
2023-03-10T22:12:49.529Z,1000.74
2023-03-10T22:15:18.778Z,1000.68
2023-03-10T22:17:47.152Z,1000.65
2023-03-10T22:20:16.497Z,1000.62
2023-03-10T22:22:43.244Z,1000.60
2023-03-10T22:25:10.973Z,1000.56
2023-03-10T22:27:37.904Z,1000.49
2023-03-10T22:30:05.692Z,1000.62
2023-03-10T22:32:32.534Z,1000.52
2023-03-10T22:35:01.094Z,1000.51
2023-03-10T22:37:27.844Z,1000.46
2023-03-10T22:39:54.596Z,1000.35
2023-03-10T22:42:21.432Z,1000.26
2023-03-10T22:44:48.404Z,1000.31
2023-03-10T22:47:16.581Z,1000.37
2023-03-10T22:49:43.357Z,1000.44
2023-03-10T22:52:11.501Z,1000.38
2023-03-10T22:54:38.561Z,1000.56
2023-03-10T22:57:06.012Z,1000.73
2023-03-10T22:59:32.811Z,1000.81
2023-03-10T23:01:59.592Z,1000.67
2023-03-10T23:04:26.382Z,1000.66
2023-03-10T23:06:53.128Z,1000.84
2023-03-10T23:09:21.263Z,1000.68
2023-03-10T23:11:48.054Z,1000.82
2023-03-10T23:14:15.067Z,1000.79
2023-03-10T23:16:41.862Z,1000.82
2023-03-10T23:19:08.796Z,1000.89
2023-03-10T23:21:36.059Z,1000.80
2023-03-10T23:24:02.895Z,1000.73
2023-03-10T23:26:31.049Z,1000.75
2023-03-10T23:28:57.799Z,1000.68
2023-03-10T23:31:24.616Z,1000.54
2023-03-10T23:33:51.512Z,1000.38
2023-03-10T23:36:18.372Z,1000.42
2023-03-10T23:38:45.174Z,1000.32
2023-03-10T23:41:12.332Z,1000.14
2023-03-10T23:43:40.631Z,1000.17
2023-03-10T23:46:08.425Z,999.96
2023-03-10T23:48:35.638Z,999.99
2023-03-10T23:51:02.694Z,999.95
2023-03-10T23:53:30.195Z,999.99
2023-03-10T23:55:57.297Z,1000.02
2023-03-10T23:58:24.469Z,999.88
